Time;durP1;ratioP1;P1;durP2;ratioP2;P2;SDS_P1;SDS_P2;PMS_P1;PMS_P2;Temp;Humidity;BMP_temperature;BMP_pressure;BME280_temperature;BME280_humidity;BME280_pressure;Samples;Min_cycle;Max_cycle;Signal;HPM_P1;HPM_P2
2023/07/20 00:00:28;;;;;;;;;;;;;;;18.36;63.87;96381.94;5085756;28;19942;-75
2023/07/20 00:03:09;;;;;;;;;;;;;;;18.30;64.34;96382.22;5103872;28;19935;-70
2023/07/20 00:05:35;;;;;;;;;;;;;;;18.26;64.24;96387.28;5086780;28;19937;-71
2023/07/20 00:08:01;;;;;;;;;;;;;;;18.21;63.81;96382.78;5085723;28;20230;-73
2023/07/20 00:10:26;;;;;;;;;;;;;;;18.16;64.28;96382.75;5103390;28;19942;-71
2023/07/20 00:12:52;;;;;;;;;;;;;;;18.11;64.31;96382.78;5086578;28;20153;-71
2023/07/20 00:15:18;;;;;;;;;;;;;;;18.07;64.49;96388.91;5102744;28;19953;-71
2023/07/20 00:17:44;;;;;;;;;;;;;;;18.04;64.38;96388.38;5085550;28;19973;-71
2023/07/20 00:20:11;;;;;;;;;;;;;;;18.01;64.59;96388.88;5104478;28;20115;-80
2023/07/20 00:22:37;;;;;;;;;;;;;;;17.96;64.65;96388.09;5104221;28;19958;-71
2023/07/20 00:25:03;;;;;;;;;;;;;;;17.92;64.60;96392.34;5104141;28;19937;-72
2023/07/20 00:27:29;;;;;;;;;;;;;;;17.87;65.27;96387.03;5103112;28;19934;-72
2023/07/20 00:29:54;;;;;;;;;;;;;;;17.80;64.56;96382.75;5106123;28;20237;-72
2023/07/20 00:32:20;;;;;;;;;;;;;;;17.76;64.86;96392.31;5106841;28;19943;-72
2023/07/20 00:34:46;;;;;;;;;;;;;;;17.72;65.61;96390.44;5105958;28;19957;-71
2023/07/20 00:37:13;;;;;;;;;;;;;;;17.67;65.99;96390.47;5107599;28;19971;-72
2023/07/20 00:39:38;;;;;;;;;;;;;;;17.63;65.91;96382.22;5089870;28;19937;-72
2023/07/20 00:42:04;;;;;;;;;;;;;;;17.60;66.28;96388.06;5107062;28;19992;-71
2023/07/20 00:44:30;;;;;;;;;;;;;;;17.56;66.09;96387.00;5089779;28;19940;-71
2023/07/20 00:46:56;;;;;;;;;;;;;;;17.53;66.80;96387.53;5106529;28;20201;-71
2023/07/20 00:49:23;;;;;;;;;;;;;;;17.49;66.32;96389.09;5106475;28;20199;-71
2023/07/20 00:51:49;;;;;;;;;;;;;;;17.43;66.89;96378.50;5088849;28;19943;-70
2023/07/20 00:54:16;;;;;;;;;;;;;;;17.39;66.72;96385.38;5106207;28;20292;-71
2023/07/20 00:56:42;;;;;;;;;;;;;;;17.35;67.20;96381.66;5106757;28;19951;-70
2023/07/20 00:59:09;;;;;;;;;;;;;;;17.30;66.96;96394.91;5106167;28;19932;-86
2023/07/20 01:01:35;;;;;;;;;;;;;;;17.25;67.02;96385.09;5107223;28;20242;-70
2023/07/20 01:04:01;;;;;;;;;;;;;;;17.21;67.25;96388.53;5089128;28;19938;-71
2023/07/20 01:06:33;;;;;;;;;;;;;;;17.17;67.74;96395.41;5107443;28;19973;-70
2023/07/20 01:09:14;;;;;;;;;;;;;;;17.14;67.30;96396.72;5105508;28;19935;-70
2023/07/20 01:11:40;;;;;;;;;;;;;;;17.13;66.78;96395.13;5106724;28;19936;-70
2023/07/20 01:14:06;;;;;;;;;;;;;;;17.10;67.33;96390.34;5107218;28;19988;-70
2023/07/20 01:16:32;;;;;;;;;;;;;;;17.07;67.07;96392.72;5105264;28;19987;-76
2023/07/20 01:18:58;;;;;;;;;;;;;;;17.03;67.34;96390.59;5106254;28;20224;-71
2023/07/20 01:21:30;;;;;;;;;;;;;;;17.02;67.12;96391.66;5104869;28;20252;-71
2023/07/20 01:24:06;;;;;;;;;;;;;;;16.99;66.75;96391.38;5106011;28;20236;-71
2023/07/20 01:26:35;;;;;;;;;;;;;;;16.96;67.09;96384.75;5105733;28;19943;-71
2023/07/20 01:29:05;;;;;;;;;;;;;;;16.95;67.21;96387.66;5105883;28;19944;-71
2023/07/20 01:31:33;;;;;;;;;;;;;;;16.92;66.92;96386.31;5088914;28;20128;-71
2023/07/20 01:34:01;;;;;;;;;;;;;;;16.90;67.30;96382.34;5105991;28;20292;-71
2023/07/20 01:36:30;;;;;;;;;;;;;;;16.86;67.03;96383.91;5087938;28;19949;-71
2023/07/20 01:38:56;;;;;;;;;;;;;;;16.81;66.91;96377.53;5104741;28;19940;-71
2023/07/20 01:41:22;;;;;;;;;;;;;;;16.77;66.96;96381.72;5104843;28;19940;-71
2023/07/20 01:43:48;;;;;;;;;;;;;;;16.74;67.41;96378.81;5104843;28;20258;-71
2023/07/20 01:46:14;;;;;;;;;;;;;;;16.71;67.13;96372.16;5106583;28;19935;-71
2023/07/20 01:48:40;;;;;;;;;;;;;;;16.70;67.40;96375.09;5104641;28;19943;-70
2023/07/20 01:51:06;;;;;;;;;;;;;;;16.64;67.31;96377.69;5106456;28;20093;-70
2023/07/20 01:53:31;;;;;;;;;;;;;;;16.60;68.32;96379.25;5105641;28;19932;-76
2023/07/20 01:55:57;;;;;;;;;;;;;;;16.52;68.31;96373.66;5104415;28;19949;-72
2023/07/20 01:58:23;;;;;;;;;;;;;;;16.47;68.20;96377.09;5105791;28;19929;-72
2023/07/20 02:00:49;;;;;;;;;;;;;;;16.45;67.71;96381.84;5104994;28;19943;-72
2023/07/20 02:03:15;;;;;;;;;;;;;;;16.42;67.78;96383.16;5105151;28;19934;-72
2023/07/20 02:05:44;;;;;;;;;;;;;;;16.41;67.27;96381.56;5104292;28;19944;-71
2023/07/20 02:08:10;;;;;;;;;;;;;;;16.40;67.25;96387.13;5105372;28;19934;-71
2023/07/20 02:10:36;;;;;;;;;;;;;;;16.36;67.45;96386.81;5105346;28;19978;-70
2023/07/20 02:13:02;;;;;;;;;;;;;;;16.32;67.83;96371.72;5105791;28;19939;-74
2023/07/20 02:15:28;;;;;;;;;;;;;;;16.30;68.31;96374.63;5105272;28;20257;-73
2023/07/20 02:17:54;;;;;;;;;;;;;;;16.27;67.58;96375.13;5104971;28;20003;-74
2023/07/20 02:20:20;;;;;;;;;;;;;;;16.25;67.89;96379.88;5105106;28;19977;-74
2023/07/20 02:22:46;;;;;;;;;;;;;;;16.22;68.52;96378.53;5104883;28;20108;-74
2023/07/20 02:25:12;;;;;;;;;;;;;;;16.20;68.84;96383.28;5105050;28;19940;-74
2023/07/20 02:27:38;;;;;;;;;;;;;;;16.18;68.55;96376.66;5105581;28;19936;-74
2023/07/20 02:30:05;;;;;;;;;;;;;;;16.15;68.66;96390.41;5104968;28;19986;-72
2023/07/20 02:32:31;;;;;;;;;;;;;;;16.12;68.74;96389.03;5087130;28;19938;-84
2023/07/20 02:34:58;;;;;;;;;;;;;;;16.09;68.83;96394.06;5104874;28;20242;-79
2023/07/20 02:37:24;;;;;;;;;;;;;;;16.09;68.50;96396.72;5105422;28;19941;-77
2023/07/20 02:39:50;;;;;;;;;;;;;;;16.07;69.25;96398.81;5105630;28;19930;-83
2023/07/20 02:42:16;;;;;;;;;;;;;;;16.06;68.97;96400.63;5105246;28;19945;-80
2023/07/20 02:44:42;;;;;;;;;;;;;;;16.03;69.17;96401.94;5104807;28;19946;-80
2023/07/20 02:47:07;;;;;;;;;;;;;;;16.03;69.78;96407.25;5087425;28;20235;-71
2023/07/20 02:49:34;;;;;;;;;;;;;;;16.01;69.71;96403.25;5105224;28;19934;-74
2023/07/20 02:51:59;;;;;;;;;;;;;;;16.00;69.21;96394.53;5104823;28;19938;-79
2023/07/20 02:54:25;;;;;;;;;;;;;;;16.01;69.09;96400.63;5104494;28;19955;-81
2023/07/20 02:56:51;;;;;;;;;;;;;;;16.01;69.62;96397.97;5104479;28;20005;-80
2023/07/20 02:59:17;;;;;;;;;;;;;;;16.01;69.02;96396.13;5104986;28;20017;-80
2023/07/20 03:01:43;;;;;;;;;;;;;;;15.97;69.59;96397.66;5104484;28;19940;-81
2023/07/20 03:04:11;;;;;;;;;;;;;;;15.95;69.63;96397.13;5105256;28;20207;-79
2023/07/20 03:06:37;;;;;;;;;;;;;;;15.95;70.09;96401.63;5104460;28;19938;-71
2023/07/20 03:09:03;;;;;;;;;;;;;;;15.94;70.29;96405.34;5104906;28;19934;-78
2023/07/20 03:11:29;;;;;;;;;;;;;;;15.93;70.36;96403.72;5104731;28;19940;-78
2023/07/20 03:13:55;;;;;;;;;;;;;;;15.89;70.32;96414.00;5104247;28;19943;-77
2023/07/20 03:16:21;;;;;;;;;;;;;;;15.85;70.12;96399.69;5104347;28;19998;-82
2023/07/20 03:18:47;;;;;;;;;;;;;;;15.82;71.08;96405.50;5104367;28;20008;-83
2023/07/20 03:21:13;;;;;;;;;;;;;;;15.80;70.75;96404.94;5104243;28;20131;-80
2023/07/20 03:23:40;;;;;;;;;;;;;;;15.75;70.78;96396.97;5104744;28;19945;-78
2023/07/20 03:26:08;;;;;;;;;;;;;;;15.72;71.08;96403.53;5104152;28;19934;-79
2023/07/20 03:28:34;;;;;;;;;;;;;;;15.71;71.45;96407.22;5104125;28;19938;-71
2023/07/20 03:31:00;;;;;;;;;;;;;;;15.69;71.70;96406.69;5086816;28;19944;-70
2023/07/20 03:33:27;;;;;;;;;;;;;;;15.69;71.60;96408.53;5104649;28;19936;-71
2023/07/20 03:35:53;;;;;;;;;;;;;;;15.68;71.48;96412.22;5103912;28;19958;-70
2023/07/20 03:38:23;;;;;;;;;;;;;;;15.66;71.53;96415.09;5104052;28;19934;-70
2023/07/20 03:40:49;;;;;;;;;;;;;;;15.61;71.79;96412.41;5104071;28;20125;-70
2023/07/20 03:43:15;;;;;;;;;;;;;;;15.60;72.21;96414.28;5104771;28;20116;-71
2023/07/20 03:45:41;;;;;;;;;;;;;;;15.59;72.23;96419.81;5104059;28;19939;-70
2023/07/20 03:48:07;;;;;;;;;;;;;;;15.60;72.15;96419.56;5104572;28;19943;-71
2023/07/20 03:50:33;;;;;;;;;;;;;;;15.60;72.25;96422.19;5104469;28;20179;-70
2023/07/20 03:52:59;;;;;;;;;;;;;;;15.59;72.21;96407.38;5104197;28;19933;-70
2023/07/20 03:55:25;;;;;;;;;;;;;;;15.59;72.88;96419.81;5103835;28;20186;-70
2023/07/20 03:57:51;;;;;;;;;;;;;;;15.59;73.56;96419.81;5104656;28;20114;-71
2023/07/20 04:00:17;;;;;;;;;;;;;;;15.59;73.09;96420.59;5103532;28;19938;-70
2023/07/20 04:02:43;;;;;;;;;;;;;;;15.62;73.08;96427.22;5104735;28;19934;-73
2023/07/20 04:05:09;;;;;;;;;;;;;;;15.60;72.99;96416.91;5106620;28;19939;-78
2023/07/20 04:07:35;;;;;;;;;;;;;;;15.63;73.12;96423.53;5107171;28;19980;-77
2023/07/20 04:10:00;;;;;;;;;;;;;;;15.64;73.43;96419.84;5107726;28;19983;-78
2023/07/20 04:12:26;;;;;;;;;;;;;;;15.69;73.37;96424.41;5108235;28;19934;-77
2023/07/20 04:14:52;;;;;;;;;;;;;;;15.72;73.12;96432.63;5107523;28;19955;-77
2023/07/20 04:17:18;;;;;;;;;;;;;;;15.76;73.52;96427.66;5107371;28;19966;-77
2023/07/20 04:19:44;;;;;;;;;;;;;;;15.79;73.87;96435.06;5107826;28;19942;-76
2023/07/20 04:22:10;;;;;;;;;;;;;;;15.80;74.40;96432.19;5108023;28;19978;-70
2023/07/20 04:24:35;;;;;;;;;;;;;;;15.82;73.65;96434.56;5106412;28;20007;-77
2023/07/20 04:27:01;;;;;;;;;;;;;;;15.84;73.77;96427.19;5108240;28;19934;-77
2023/07/20 04:29:27;;;;;;;;;;;;;;;15.86;73.51;96430.38;5107891;28;19994;-77
2023/07/20 04:31:53;;;;;;;;;;;;;;;15.90;75.99;96439.41;5107311;28;19991;-78
2023/07/20 04:34:19;;;;;;;;;;;;;;;15.90;74.42;96428.84;5107672;28;19958;-77
2023/07/20 04:36:45;;;;;;;;;;;;;;;15.95;73.83;96433.38;5106578;28;20265;-77
2023/07/20 04:39:11;;;;;;;;;;;;;;;15.99;74.10;96437.09;5107920;28;19972;-71
2023/07/20 04:41:37;;;;;;;;;;;;;;;16.04;74.39;96434.47;5107150;28;20239;-78
2023/07/20 04:44:03;;;;;;;;;;;;;;;16.07;73.77;96426.06;5107097;28;19980;-77
2023/07/20 04:46:29;;;;;;;;;;;;;;;16.13;74.43;96426.91;5107557;28;19940;-78
2023/07/20 04:48:55;;;;;;;;;;;;;;;16.17;74.44;96420.84;5107022;28;19946;-77
2023/07/20 04:51:22;;;;;;;;;;;;;;;16.24;74.38;96418.75;5107719;28;19980;-77
2023/07/20 04:53:48;;;;;;;;;;;;;;;16.30;73.77;96419.59;5106900;28;19934;-78
2023/07/20 04:56:14;;;;;;;;;;;;;;;16.36;74.15;96425.75;5106678;28;19960;-79
2023/07/20 04:58:39;;;;;;;;;;;;;;;16.42;74.11;96429.97;5107362;28;19936;-78
2023/07/20 05:01:05;;;;;;;;;;;;;;;16.48;74.45;96434.25;5105753;28;19939;-74
2023/07/20 05:03:31;;;;;;;;;;;;;;;16.54;74.11;96435.88;5107207;28;20000;-73
2023/07/20 05:05:57;;;;;;;;;;;;;;;16.60;72.55;96432.22;5106633;28;19938;-73
2023/07/20 05:08:23;;;;;;;;;;;;;;;16.71;71.62;96426.97;5106634;28;19944;-73
2023/07/20 05:10:49;;;;;;;;;;;;;;;16.83;71.65;96417.81;5106818;28;19933;-75
2023/07/20 05:13:15;;;;;;;;;;;;;;;16.92;71.92;96418.09;5106991;28;19954;-74
2023/07/20 05:15:41;;;;;;;;;;;;;;;16.99;72.92;96423.19;5106669;28;19953;-72
2023/07/20 05:18:07;;;;;;;;;;;;;;;17.06;73.73;96428.22;5105124;28;20035;-70
2023/07/20 05:20:34;;;;;;;;;;;;;;;17.13;73.79;96418.19;5105830;28;19939;-70
2023/07/20 05:23:00;;;;;;;;;;;;;;;17.20;74.13;96424.03;5105117;28;19960;-69
2023/07/20 05:25:26;;;;;;;;;;;;;;;17.30;73.83;96421.41;5105020;28;19941;-70
2023/07/20 05:27:52;;;;;;;;;;;;;;;17.39;73.52;96427.00;5106263;28;19932;-70
2023/07/20 05:30:18;;;;;;;;;;;;;;;17.47;72.48;96418.56;5106670;28;20003;-70
2023/07/20 05:32:47;;;;;;;;;;;;;;;17.59;73.98;96421.72;5106163;28;20005;-70
2023/07/20 05:35:14;;;;;;;;;;;;;;;17.68;71.71;96408.78;5106796;28;20089;-72
2023/07/20 05:37:39;;;;;;;;;;;;;;;17.71;70.00;96402.94;5104868;28;19948;-71
2023/07/20 05:40:07;;;;;;;;;;;;;;;17.70;70.65;96404.00;5105987;28;20119;-72
2023/07/20 05:42:33;;;;;;;;;;;;;;;17.68;70.09;96400.81;5106744;28;19941;-70
2023/07/20 05:44:59;;;;;;;;;;;;;;;17.73;71.55;96410.63;5105577;28;20115;-71
2023/07/20 05:47:25;;;;;;;;;;;;;;;17.75;71.41;96406.66;5105861;28;19941;-70
2023/07/20 05:49:51;;;;;;;;;;;;;;;17.77;72.04;96407.19;5104779;28;19944;-72
2023/07/20 05:52:16;;;;;;;;;;;;;;;17.82;71.62;96401.06;5106287;28;20017;-72
2023/07/20 05:54:42;;;;;;;;;;;;;;;17.88;69.80;96393.94;5105311;28;19950;-70
2023/07/20 05:57:08;;;;;;;;;;;;;;;17.91;70.07;96401.38;5105563;28;20242;-70
2023/07/20 05:59:34;;;;;;;;;;;;;;;17.92;70.73;96411.72;5106378;28;19982;-70
2023/07/20 06:02:00;;;;;;;;;;;;;;;17.91;69.77;96404.84;5104512;28;19954;-70
2023/07/20 06:04:26;;;;;;;;;;;;;;;17.92;70.00;96409.06;5105135;28;19944;-70
2023/07/20 06:06:51;;;;;;;;;;;;;;;17.94;70.15;96409.59;5105471;28;19934;-71
2023/07/20 06:09:17;;;;;;;;;;;;;;;17.94;70.65;96417.56;5105182;28;19943;-70
2023/07/20 06:11:43;;;;;;;;;;;;;;;17.94;70.13;96414.13;5105422;28;19976;-71
2023/07/20 06:14:09;;;;;;;;;;;;;;;17.97;70.82;96424.19;5105033;28;19939;-78
2023/07/20 06:16:35;;;;;;;;;;;;;;;17.97;70.43;96421.53;5105363;28;19954;-77
2023/07/20 06:19:01;;;;;;;;;;;;;;;17.95;70.44;96424.44;5105298;28;20015;-77
2023/07/20 06:21:27;;;;;;;;;;;;;;;17.97;71.10;96424.97;5105259;28;19977;-77
2023/07/20 06:23:53;;;;;;;;;;;;;;;18.02;70.75;96418.88;5105351;28;20040;-78
2023/07/20 06:26:19;;;;;;;;;;;;;;;18.11;72.63;96419.16;5105280;28;19941;-77
2023/07/20 06:28:45;;;;;;;;;;;;;;;18.21;70.27;96401.34;5105723;28;19938;-76
2023/07/20 06:31:11;;;;;;;;;;;;;;;18.32;70.26;96409.31;5104073;28;19935;-76
2023/07/20 06:33:37;;;;;;;;;;;;;;;18.39;68.48;96391.22;5103960;28;20013;-76
2023/07/20 06:36:03;;;;;;;;;;;;;;;18.46;69.41;96403.16;5104968;28;20248;-76
2023/07/20 06:38:29;;;;;;;;;;;;;;;18.57;69.39;96405.81;5105042;28;19945;-77
2023/07/20 06:40:55;;;;;;;;;;;;;;;18.66;69.07;96404.16;5104917;28;20154;-77
2023/07/20 06:43:21;;;;;;;;;;;;;;;18.79;69.03;96402.84;5104913;28;20000;-77
2023/07/20 06:45:56;;;;;;;;;;;;;;;18.92;66.99;96391.63;5104890;28;19993;-77
2023/07/20 06:48:21;;;;;;;;;;;;;;;19.04;67.04;96386.78;5104776;28;20117;-69
2023/07/20 06:50:47;;;;;;;;;;;;;;;19.16;66.23;96394.44;5104770;28;19941;-80
2023/07/20 06:53:13;;;;;;;;;;;;;;;19.24;64.65;96380.56;5104818;28;19934;-85
2023/07/20 06:55:39;;;;;;;;;;;;;;;19.25;64.74;96384.81;5103481;28;20174;-83
2023/07/20 06:58:05;;;;;;;;;;;;;;;19.29;64.52;96389.59;5103473;28;19948;-84
2023/07/20 07:00:31;;;;;;;;;;;;;;;19.31;64.37;96385.56;5103497;28;19997;-86
2023/07/20 07:02:57;;;;;;;;;;;;;;;19.42;64.95;96388.97;5105080;28;19996;-84
2023/07/20 07:05:22;;;;;;;;;;;;;;;19.60;64.94;96385.66;5104526;28;19935;-74
2023/07/20 07:07:48;;;;;;;;;;;;;;;19.90;63.77;96383.06;5105032;28;19939;-75
2023/07/20 07:10:14;;;;;;;;;;;;;;;20.20;61.19;96358.84;5104362;28;19950;-84
2023/07/20 07:12:40;;;;;;;;;;;;;;;20.49;61.04;96363.31;5104460;28;19934;-84
2023/07/20 07:15:07;;;;;;;;;;;;;;;20.81;61.33;96364.59;5104871;28;20143;-83
2023/07/20 07:17:32;;;;;;;;;;;;;;;21.01;59.44;96363.56;5103058;28;19977;-83
2023/07/20 07:19:58;;;;;;;;;;;;;;;21.21;58.97;96352.63;5103876;28;20087;-82
2023/07/20 07:22:25;;;;;;;;;;;;;;;21.49;58.86;96360.78;5104793;28;19984;-83
2023/07/20 07:24:51;;;;;;;;;;;;;;;21.68;57.04;96350.88;5104304;28;19940;-84
2023/07/20 07:27:17;;;;;;;;;;;;;;;21.91;57.87;96358.28;5104236;28;19980;-72
2023/07/20 07:29:46;;;;;;;;;;;;;;;21.99;55.29;96338.91;5104185;28;19934;-72
2023/07/20 07:32:12;;;;;;;;;;;;;;;22.03;54.35;96342.56;5104963;28;20197;-72
2023/07/20 07:34:38;;;;;;;;;;;;;;;22.08;55.50;96350.47;5104169;28;19935;-72
2023/07/20 07:37:04;;;;;;;;;;;;;;;22.17;55.69;96343.38;5104982;28;20028;-72
2023/07/20 07:39:30;;;;;;;;;;;;;;;22.32;54.23;96346.88;5107221;28;19941;-71
2023/07/20 07:41:56;;;;;;;;;;;;;;;22.40;54.94;96338.97;5108282;28;20226;-73
2023/07/20 07:44:22;;;;;;;;;;;;;;;22.48;54.09;96335.59;5108821;28;19944;-71
2023/07/20 07:46:48;;;;;;;;;;;;;;;22.64;54.52;96344.13;5090202;28;19941;-72
2023/07/20 07:49:14;;;;;;;;;;;;;;;22.74;51.35;96329.78;5090836;28;19948;-72
2023/07/20 07:51:40;;;;;;;;;;;;;;;22.76;53.09;96340.16;5107967;28;19941;-72
2023/07/20 07:54:06;;;;;;;;;;;;;;;22.74;51.88;96337.78;5107804;28;19939;-71
2023/07/20 07:56:32;;;;;;;;;;;;;;;22.76;52.06;96330.25;5090544;28;19964;-71
2023/07/20 07:58:58;;;;;;;;;;;;;;;22.72;52.31;96339.97;5107969;28;19984;-72
2023/07/20 08:01:24;;;;;;;;;;;;;;;22.84;52.58;96347.47;5106813;28;19938;-71
2023/07/20 08:03:49;;;;;;;;;;;;;;;22.92;51.71;96346.00;5106793;28;19967;-79
2023/07/20 08:06:15;;;;;;;;;;;;;;;22.77;51.37;96341.75;5108629;28;20240;-80
2023/07/20 08:08:42;;;;;;;;;;;;;;;22.83;53.56;96348.56;5107751;28;19933;-80
2023/07/20 08:11:08;;;;;;;;;;;;;;;23.07;52.56;96343.00;5108135;28;20112;-81
2023/07/20 08:13:34;;;;;;;;;;;;;;;23.11;50.23;96341.31;5108793;28;19938;-81
2023/07/20 08:16:02;;;;;;;;;;;;;;;22.90;51.50;96340.94;5108266;28;19956;-80
2023/07/20 08:18:28;;;;;;;;;;;;;;;22.85;52.25;96349.06;5107442;28;19963;-80
2023/07/20 08:20:54;;;;;;;;;;;;;;;22.85;51.57;96349.06;5107151;28;19985;-73
2023/07/20 08:23:20;;;;;;;;;;;;;;;22.61;50.61;96341.25;5089377;28;20220;-71
2023/07/20 08:25:46;;;;;;;;;;;;;;;22.38;52.35;96346.47;5106882;28;19940;-71
2023/07/20 08:28:15;;;;;;;;;;;;;;;22.32;51.03;96342.31;5107634;28;19932;-71
2023/07/20 08:30:45;;;;;;;;;;;;;;;22.34;51.51;96350.84;5107599;28;19938;-71
2023/07/20 08:33:15;;;;;;;;;;;;;;;22.25;51.36;96345.38;5106415;28;19930;-71
2023/07/20 08:35:42;;;;;;;;;;;;;;;22.16;51.41;96349.03;5107683;28;19954;-71
2023/07/20 08:38:07;;;;;;;;;;;;;;;22.01;52.96;96363.44;5107421;28;20253;-71
2023/07/20 08:40:34;;;;;;;;;;;;;;;21.96;51.75;96353.63;5106912;28;19941;-71
2023/07/20 08:43:02;;;;;;;;;;;;;;;21.94;50.73;96344.31;5106590;28;19947;-71
2023/07/20 08:45:31;;;;;;;;;;;;;;;22.02;53.46;96357.00;5107595;28;19937;-70
2023/07/20 08:48:02;;;;;;;;;;;;;;;22.28;53.16;96350.16;5089693;28;19937;-71
2023/07/20 08:50:30;;;;;;;;;;;;;;;22.29;51.59;96342.94;5106241;28;19934;-70
2023/07/20 08:52:57;;;;;;;;;;;;;;;22.25;52.47;96349.94;5107483;28;20225;-71
2023/07/20 08:55:24;;;;;;;;;;;;;;;22.32;52.04;96345.00;5106203;28;19947;-71
2023/07/20 08:57:52;;;;;;;;;;;;;;;22.60;50.04;96337.00;5106727;28;20239;-71
2023/07/20 09:00:20;;;;;;;;;;;;;;;22.75;47.80;96331.34;5105613;28;19941;-83
2023/07/20 09:02:46;;;;;;;;;;;;;;;22.67;49.17;96343.53;5105684;28;19939;-81
2023/07/20 09:05:14;;;;;;;;;;;;;;;22.60;51.87;96353.84;5106632;28;19930;-83
2023/07/20 09:07:40;;;;;;;;;;;;;;;22.59;47.87;96343.44;5107141;28;19940;-82
2023/07/20 09:10:07;;;;;;;;;;;;;;;22.77;46.98;96339.84;5107129;28;19940;-83
2023/07/20 09:12:36;;;;;;;;;;;;;;;22.85;43.75;96341.06;5105413;28;19933;-82
2023/07/20 09:15:03;;;;;;;;;;;;;;;23.09;44.71;96338.16;5106458;28;19938;-72
2023/07/20 09:17:30;;;;;;;;;;;;;;;23.21;41.65;96343.00;5089012;28;19970;-74
2023/07/20 09:19:56;;;;;;;;;;;;;;;23.37;41.57;96341.56;5106363;28;19951;-75
2023/07/20 09:22:22;;;;;;;;;;;;;;;23.59;41.49;96342.66;5106018;28;19942;-75
2023/07/20 09:24:48;;;;;;;;;;;;;;;23.73;41.89;96339.91;5105976;28;20184;-74
2023/07/20 09:27:14;;;;;;;;;;;;;;;;;;5106164;28;19934;-74
2023/07/20 09:29:47;;;;;;;;;;;;;;;23.89;41.91;96346.50;5106649;28;19969;-75
2023/07/20 09:32:17;;;;;;;;;;;;;;;23.89;44.70;96352.63;5105788;28;19939;-75
2023/07/20 09:34:43;;;;;;;;;;;;;;;23.94;41.74;96354.41;5106121;28;19932;-71
2023/07/20 09:37:09;;;;;;;;;;;;;;;23.84;41.57;96352.00;5104820;28;19962;-83
2023/07/20 09:39:43;;;;;;;;;;;;;;;23.67;42.00;96345.38;5106039;28;20132;-83
2023/07/20 09:42:08;;;;;;;;;;;;;;;23.61;41.41;96343.16;5105524;28;19941;-76
2023/07/20 09:44:34;;;;;;;;;;;;;;;23.73;40.83;96351.41;5106234;28;19939;-86
2023/07/20 09:47:03;;;;;;;;;;;;;;;24.00;40.89;96339.00;5106023;28;19978;-86
2023/07/20 09:49:28;;;;;;;;;;;;;;;24.26;39.13;96325.75;5088614;28;19942;-86
2023/07/20 09:51:55;;;;;;;;;;;;;;;24.48;39.42;96325.69;5106611;28;19940;-79
2023/07/20 09:54:21;;;;;;;;;;;;;;;24.50;37.86;96339.56;5105728;28;19943;-77
2023/07/20 09:56:50;;;;;;;;;;;;;;;24.55;39.29;96349.38;5087663;28;19974;-73
2023/07/20 09:59:16;;;;;;;;;;;;;;;24.56;39.39;96345.59;5087639;28;19945;-73
2023/07/20 10:01:43;;;;;;;;;;;;;;;24.64;38.17;96339.47;5104159;28;19990;-73
2023/07/20 10:04:11;;;;;;;;;;;;;;;24.73;38.61;96338.69;5104330;28;19934;-73
2023/07/20 10:06:40;;;;;;;;;;;;;;;24.78;38.55;96336.66;5105689;28;20136;-74
2023/07/20 10:09:07;;;;;;;;;;;;;;;24.71;33.87;96326.41;5087483;28;19942;-71
2023/07/20 10:11:35;;;;;;;;;;;;;;;24.83;38.02;96328.47;5087462;28;20224;-72
2023/07/20 10:14:05;;;;;;;;;;;;;;;24.92;37.36;96328.47;5088222;28;19946;-70
2023/07/20 10:16:34;;;;;;;;;;;;;;;25.10;36.39;96335.44;5088109;28;20269;-70
2023/07/20 10:19:17;;;;;;;;;;;;;;;25.23;38.72;96325.69;5105292;28;19976;-71
2023/07/20 10:21:47;;;;;;;;;;;;;;;25.28;37.91;96322.06;5105520;28;20106;-71
2023/07/20 10:24:13;;;;;;;;;;;;;;;25.36;38.23;96323.19;5105421;28;19939;-71
2023/07/20 10:26:39;;;;;;;;;;;;;;;25.56;37.29;96311.81;5105645;28;19932;-71
2023/07/20 10:29:05;;;;;;;;;;;;;;;25.69;37.83;96313.50;5104884;28;20130;-75
2023/07/20 10:31:32;;;;;;;;;;;;;;;25.69;34.40;96291.25;5103982;28;19943;-71
2023/07/20 10:33:58;;;;;;;;;;;;;;;25.68;36.26;96314.63;5105796;28;19959;-72
2023/07/20 10:36:26;;;;;;;;;;;;;;;25.76;34.68;96309.56;5105677;28;19949;-71
2023/07/20 10:38:53;;;;;;;;;;;;;;;25.71;37.22;96313.97;5103742;28;19945;-71
2023/07/20 10:41:20;;;;;;;;;;;;;;;25.70;35.34;96307.03;5103802;28;19928;-71
2023/07/20 10:43:47;;;;;;;;;;;;;;;25.84;36.56;96300.69;5086814;28;19944;-71
2023/07/20 10:46:13;;;;;;;;;;;;;;;25.92;35.35;96305.28;5104856;28;19938;-86
2023/07/20 10:48:57;;;;;;;;;;;;;;;26.08;36.38;96303.66;5087037;28;19938;-87
2023/07/20 10:51:23;;;;;;;;;;;;;;;26.37;37.20;96306.69;5103675;28;20215;-71
2023/07/20 10:53:50;;;;;;;;;;;;;;;26.55;32.41;96291.28;5087488;28;19980;-71
2023/07/20 10:56:19;;;;;;;;;;;;;;;26.69;34.80;96295.34;5104509;28;19965;-71
2023/07/20 10:58:45;;;;;;;;;;;;;;;26.80;35.28;96294.97;5103570;28;19936;-71
2023/07/20 11:01:16;;;;;;;;;;;;;;;26.85;35.60;96294.75;5104574;28;19951;-71
2023/07/20 11:03:42;;;;;;;;;;;;;;;26.99;36.08;96287.22;5103474;28;19940;-71
2023/07/20 11:06:23;;;;;;;;;;;;;;;26.90;33.66;96289.97;5104600;28;19940;-72
2023/07/20 11:08:54;;;;;;;;;;;;;;;26.92;33.46;96287.75;5087329;28;19950;-71
2023/07/20 11:11:22;;;;;;;;;;;;;;;27.06;35.31;96284.00;5104009;28;19935;-72
2023/07/20 11:13:55;;;;;;;;;;;;;;;26.89;34.11;96285.69;5105138;28;19939;-71
2023/07/20 11:16:31;;;;;;;;;;;;;;;26.52;34.21;96288.13;5105120;28;19958;-71
2023/07/20 11:18:57;;;;;;;;;;;;;;;26.15;34.70;96297.78;5086395;28;19971;-71
2023/07/20 11:21:23;;;;;;;;;;;;;;;26.16;34.52;96307.41;5105108;28;19944;-71
2023/07/20 11:23:49;;;;;;;;;;;;;;;26.27;34.35;96297.91;5103232;28;20248;-78
2023/07/20 11:26:15;;;;;;;;;;;;;;;26.46;34.65;96294.81;5086394;28;20012;-70
2023/07/20 11:28:41;;;;;;;;;;;;;;;26.69;35.56;96297.22;5103919;28;19936;-70
2023/07/20 11:31:07;;;;;;;;;;;;;;;26.90;35.26;96284.59;5103242;28;20225;-69
2023/07/20 11:33:33;;;;;;;;;;;;;;;27.07;33.94;96282.91;5104208;28;19943;-70
2023/07/20 11:35:59;;;;;;;;;;;;;;;27.33;34.24;96278.09;5104154;28;20155;-71
2023/07/20 11:38:25;;;;;;;;;;;;;;;27.52;34.27;96272.22;5103646;28;19979;-70
2023/07/20 11:40:51;;;;;;;;;;;;;;;27.65;33.87;96269.56;5104151;28;19940;-78
2023/07/20 11:43:18;;;;;;;;;;;;;;;27.74;33.63;96275.69;5104593;28;19933;-80
2023/07/20 11:45:45;;;;;;;;;;;;;;;27.62;32.10;96271.03;5103799;28;19939;-72
2023/07/20 11:48:14;;;;;;;;;;;;;;;27.61;33.03;96271.34;5104089;28;19936;-72
2023/07/20 11:50:40;;;;;;;;;;;;;;;27.66;32.46;96266.56;5086002;28;19944;-72
2023/07/20 11:53:06;;;;;;;;;;;;;;;27.74;32.43;96262.19;5104025;28;19954;-72
2023/07/20 11:55:32;;;;;;;;;;;;;;;27.70;32.81;96261.28;5103504;28;19938;-71
2023/07/20 11:58:05;;;;;;;;;;;;;;;27.81;33.38;96262.44;5103882;28;20001;-72
2023/07/20 12:00:31;;;;;;;;;;;;;;;28.03;32.62;96260.47;5085849;28;19937;-71
2023/07/20 12:02:57;;;;;;;;;;;;;;;28.01;29.79;96257.31;5104487;28;19935;-78
2023/07/20 12:05:23;;;;;;;;;;;;;;;27.98;31.58;96261.47;5104694;28;19938;-80
2023/07/20 12:07:50;;;;;;;;;;;;;;;27.87;31.97;96249.56;5103883;28;19944;-80
2023/07/20 12:10:16;;;;;;;;;;;;;;;27.84;32.57;96252.88;5104670;28;19933;-79
2023/07/20 12:12:43;;;;;;;;;;;;;;;27.95;33.37;96243.28;5103882;28;19934;-79
2023/07/20 12:15:22;;;;;;;;;;;;;;;28.00;32.93;96245.75;5104322;28;19942;-80
2023/07/20 12:17:56;;;;;;;;;;;;;;;27.72;31.35;96243.66;5103566;28;19964;-80
2023/07/20 12:20:31;;;;;;;;;;;;;;;27.68;32.79;96252.75;5104927;28;20100;-79
2023/07/20 12:23:02;;;;;;;;;;;;;;;27.77;31.58;96233.78;5104642;28;19935;-72
2023/07/20 12:25:47;;;;;;;;;;;;;;;27.89;27.75;96223.84;5089599;28;19946;-72
2023/07/20 12:28:14;;;;;;;;;;;;;;;28.01;29.78;96222.28;5106341;28;19936;-72
2023/07/20 12:30:41;;;;;;;;;;;;;;;27.97;30.64;96229.47;5108017;28;19941;-72
2023/07/20 12:33:06;;;;;;;;;;;;;;;28.02;30.21;96238.13;5107957;28;19936;-72
2023/07/20 12:35:32;;;;;;;;;;;;;;;28.04;30.84;96230.47;5107661;28;19936;-72
2023/07/20 12:37:59;;;;;;;;;;;;;;;28.04;32.08;96230.47;5107301;28;20132;-72
2023/07/20 12:40:25;;;;;;;;;;;;;;;27.88;31.78;96232.25;5090110;28;19945;-72
2023/07/20 12:42:51;;;;;;;;;;;;;;;27.69;31.33;96219.28;5108086;28;19936;-72
2023/07/20 12:45:17;;;;;;;;;;;;;;;27.54;31.48;96216.13;5107606;28;19952;-72